Grand Princess — ZCBU5 — position and weather

sailwx.info

Track history (hours):
 
Tides and Currents Weather Stations Pressure Air Temp Water Temp Dewpoint Dewpoint Depression Visibility Wind Speed Wind Dir Waves Ship Positions

Grand Princess

Operator: Princess Cruises

Last reported at 2020-Jan-25 03:30 UTC. Time now 2020-Jan-25 05:10 UTC.
Position N 32°43' W 117°10'.

Length 289.5 m; beam 36 m; draft 8.5 m.

Type: Passenger vessel. MMSI: 310327000.

Date/timePositionNaut miles runAvg speedWind from/ knotsBaromVisibWave heightAir tempDewpointWater temp
2020-Jan-25 03:30N 32°43' W 117°10'0 0.0
2020-Jan-25 01:01N 32°43' W 117°10'0 0.0
2020-Jan-25 00:28N 32°43' W 117°10'0 0.0
2020-Jan-24 23:01N 32°43' W 117°10'0 0.0
2020-Jan-24 20:31N 32°43' W 117°10'0 0.0
2020-Jan-24 19:55N 32°43' W 117°10'0 0.0
2020-Jan-24 19:31N 32°43' W 117°10'0 0.0
2020-Jan-24 16:00N 32°43' W 117°10'4 3.6
2020-Jan-24 15:00N 32°41' W 117°14'1010.4
2020-Jan-24 14:00N 32°32' W 117°20'2412.2
2020-Jan-24 12:00N 32°22' W 117°47'1212.1
2020-Jan-24 11:01N 32°21' W 118°01'611.7
2020-Jan-24 10:30N 32°20' W 118°08'611.9
2020-Jan-24 10:01N 32°19' W 118°15'4317.2
2020-Jan-24 07:30N 32°13' W 119°05'816.7
2020-Jan-24 07:01N 32°14' W 119°15'4913.9
2020-Jan-24 03:30N 32°43' W 120°02'1413.1
2020-Jan-24 02:26N 32°53' W 120°13'2512.9
2020-Jan-24 00:28N 33°12' W 120°33'1712.7
2020-Jan-23 23:06N 33°27' W 120°45'1413.1
2020-Jan-23 22:00N 33°38' W 120°55'24215.1
2020-Jan-23 06:00N 37°24' W 122°44'917.2
2020-Jan-23 05:30N 37°32' W 122°44'22 2.1
2020-Jan-22 18:58N 37°48' W 122°24'0 0.0
2020-Jan-22 14:58N 37°48' W 122°24'13 6.8
2020-Jan-22 13:00N 37°44' W 122°40'  
Track history (hours):
 
Tides and Currents Weather Stations Pressure Air Temp Water Temp Dewpoint Dewpoint Depression Visibility Wind Speed Wind Dir Waves Ship Positions

Grand Princess

Operator: Princess Cruises

Last reported at 2020-Jan-25 03:30 UTC. Time now 2020-Jan-25 05:10 UTC.
Position N 32°43' W 117°10'.

Length 289.5 m; beam 36 m; draft 8.5 m.

Type: Passenger vessel. MMSI: 310327000.

Date/timePositionNaut miles runAvg speedWind from/ knotsBaromVisibWave heightAir tempDewpointWater temp
2020-Jan-25 03:30N 32°43' W 117°10'0 0.0
2020-Jan-25 01:01N 32°43' W 117°10'0 0.0
2020-Jan-25 00:28N 32°43' W 117°10'0 0.0
2020-Jan-24 23:01N 32°43' W 117°10'0 0.0
2020-Jan-24 20:31N 32°43' W 117°10'0 0.0
2020-Jan-24 19:55N 32°43' W 117°10'0 0.0
2020-Jan-24 19:31N 32°43' W 117°10'0 0.0
2020-Jan-24 16:00N 32°43' W 117°10'4 3.6
2020-Jan-24 15:00N 32°41' W 117°14'1010.4
2020-Jan-24 14:00N 32°32' W 117°20'2412.2
2020-Jan-24 12:00N 32°22' W 117°47'1212.1
2020-Jan-24 11:01N 32°21' W 118°01'611.7
2020-Jan-24 10:30N 32°20' W 118°08'611.9
2020-Jan-24 10:01N 32°19' W 118°15'4317.2
2020-Jan-24 07:30N 32°13' W 119°05'816.7
2020-Jan-24 07:01N 32°14' W 119°15'4913.9
2020-Jan-24 03:30N 32°43' W 120°02'1413.1
2020-Jan-24 02:26N 32°53' W 120°13'2512.9
2020-Jan-24 00:28N 33°12' W 120°33'1712.7
2020-Jan-23 23:06N 33°27' W 120°45'1413.1
2020-Jan-23 22:00N 33°38' W 120°55'24215.1
2020-Jan-23 06:00N 37°24' W 122°44'917.2
2020-Jan-23 05:30N 37°32' W 122°44'22 2.1
2020-Jan-22 18:58N 37°48' W 122°24'0 0.0
2020-Jan-22 14:58N 37°48' W 122°24'13 6.8
2020-Jan-22 13:00N 37°44' W 122°40'  

Dump ship's entire track history